Airfield :
LOGIN :

Register | Disclaimer

   EN    FR    IT 

 










Legend :    VFR   Marginal VFR   IFR   Intensive IFR   Very Intensive IFR
Visi :
Ceiling :
>= 8 km
>= 3000ft
5 to 8 km
1000 to 3000 ft
1500m to 5 km
500 to 1000 ft
800 to 1500m
200 to 500 ft
< 800m
< 200 ft
Symbols :   Thunderstorms  Fog  Heavy snow  Heavy precipitations  Wind > 20 kt
SIGMETs :     Misc.  Thunderstorms  Icing  Turbulence  Mountain Waves  Volcanic Ashes







- Airport Elevation : 1822 ft


ETSL - Lechfeld AB

CURRENT METAR :
  • 231620Z 25006KT 9999 FEW050TCU SCT130 BKN230 15/11 Q1017 BLU+

EXPIRED METARs :
  • 231520Z 31007KT 9999 FEW050TCU SCT070 BKN110 15/11 Q1017 RESHRA BLU
  • 231500Z 33012KT 9999 -SHRA FEW050TCU BKN070 BKN110 15/11 Q1016 RESHRA BLU FCST CANCEL
  • 231420Z 30011KT 9999 VCSH FEW050CB SCT060 BKN110 18/10 Q1017 RETS BLU BLU TEMPO WHT

TAF AMD TAF ETSL
Valid from the 23 at 14:00 until the 23 at 23:00 UTC


231500Z 2314/2323 23012KT 9999 NSW SCT050 BKN120
TEMPO 2314/2322 26010G20KT 6000 SHRA SCT015 BKN020CB
PROB30 2314/2322 27015G30KT 4000 TSRA SCT010 BKN015CB CANCEL 1500 BY ETGL
No reported NOTAMs for that airfield.
1 SIGMET reported for the München FIR (EDMM) :
 
Squall lined thunderstorms
EDMM SIGMET 3 VALID 231545/231745 EDZM
EDMM MUNCHEN FIR SQL TS OBS APRX 25NM WID LINE BTN N5124 E01458 - N5004 E01034 TOP FL370 MOV E WKN=



MET'MAP, your aeronautical weather chart ! - Copyright ORBIFLY December 2007 - Disclaimer

ORBIFLY MET'MAP TEAM :

Programming & Development : Alexandra Zaïnal
Concept & Development : Baudouin d'Aumeries
Co-Development & Prog : Marc-Olivier Méhu
Technical & hardware support : Manuel Goepfert

Contact : metmap@orbifly.com




SOURCES & CREDITS :

   NOAA